createdAt,value
2019-04-06T00:00:01.159Z,10.40
2019-04-06T00:02:05.294Z,10.40
2019-04-06T00:04:08.246Z,10.40
2019-04-06T00:06:11.263Z,10.40
2019-04-06T00:08:14.928Z,10.30
2019-04-06T00:10:18.586Z,10.30
2019-04-06T00:12:22.333Z,10.30
2019-04-06T00:14:25.344Z,10.30
2019-04-06T00:16:29.002Z,10.20
2019-04-06T00:18:33.568Z,10.10
2019-04-06T00:20:37.260Z,10.10
2019-04-06T00:22:40.107Z,10.10
2019-04-06T00:24:43.090Z,10.10
2019-04-06T00:26:45.998Z,10.10
2019-04-06T00:28:49.671Z,10.00
2019-04-06T00:31:11.220Z,10.00
2019-04-06T00:33:14.876Z,9.90
2019-04-06T00:35:17.819Z,9.90
2019-04-06T00:37:21.178Z,9.90
2019-04-06T00:39:24.831Z,9.80
2019-04-06T00:41:27.742Z,9.80
2019-04-06T00:43:30.827Z,9.80
2019-04-06T00:45:33.818Z,9.70
2019-04-06T00:47:37.515Z,9.70
2019-04-06T00:49:41.349Z,9.70
2019-04-06T00:51:44.983Z,9.60
2019-04-06T00:53:48.323Z,9.60
2019-04-06T00:55:55.953Z,9.50
2019-04-06T00:57:56.389Z,9.50
2019-04-06T00:59:59.313Z,9.50
2019-04-06T01:02:02.985Z,9.50
2019-04-06T01:04:06.374Z,9.40
2019-04-06T01:06:09.275Z,9.40
2019-04-06T01:08:12.253Z,9.40
2019-04-06T01:10:15.174Z,9.40
2019-04-06T01:12:18.126Z,9.40
2019-04-06T01:14:22.555Z,9.30
2019-04-06T01:16:25.494Z,9.30
2019-04-06T01:18:28.399Z,9.30
2019-04-06T01:20:31.482Z,9.30
2019-04-06T01:22:34.366Z,9.30
2019-04-06T01:24:37.357Z,9.20
2019-04-06T01:26:40.341Z,9.20
2019-04-06T01:28:43.211Z,9.20
2019-04-06T01:30:46.184Z,9.10
2019-04-06T01:32:49.795Z,9.10
2019-04-06T01:34:52.897Z,9.10
2019-04-06T01:36:55.669Z,9.10
2019-04-06T01:38:59.353Z,9.00
2019-04-06T01:41:02.239Z,9.00
2019-04-06T01:43:05.113Z,9.00
2019-04-06T01:45:08.423Z,9.00
2019-04-06T01:47:12.075Z,9.00
2019-04-06T01:49:15.068Z,8.90
2019-04-06T01:51:18.039Z,8.90
2019-04-06T01:53:20.964Z,8.90
2019-04-06T01:55:23.891Z,8.90
2019-04-06T01:57:27.239Z,8.90
2019-04-06T01:59:30.222Z,8.90
2019-04-06T02:01:34.609Z,8.80
2019-04-06T02:03:37.650Z,8.80
2019-04-06T02:05:40.598Z,8.80
2019-04-06T02:07:43.471Z,8.80
2019-04-06T02:09:46.462Z,8.80
2019-04-06T02:11:49.438Z,8.70
2019-04-06T02:13:52.330Z,8.70
2019-04-06T02:15:56.007Z,8.70
2019-04-06T02:17:59.023Z,8.60
2019-04-06T02:20:01.991Z,8.60
2019-04-06T02:22:05.832Z,8.60
2019-04-06T02:24:09.465Z,8.60
2019-04-06T02:26:12.372Z,8.60
2019-04-06T02:28:16.109Z,8.50
2019-04-06T02:30:21.527Z,8.50
2019-04-06T02:32:40.152Z,8.50
2019-04-06T02:35:00.456Z,8.50
2019-04-06T02:37:08.943Z,8.50
2019-04-06T02:39:16.440Z,8.40
2019-04-06T02:41:19.985Z,8.40
2019-04-06T02:43:23.582Z,8.40
2019-04-06T02:45:26.457Z,8.40
2019-04-06T02:47:30.133Z,8.40
2019-04-06T02:49:34.259Z,8.40
2019-04-06T02:51:37.951Z,8.40
2019-04-06T02:53:41.025Z,8.30
2019-04-06T02:55:44.951Z,8.30
2019-04-06T02:57:48.600Z,8.30
2019-04-06T02:59:53.334Z,8.30
2019-04-06T03:01:56.183Z,8.30
2019-04-06T03:03:59.834Z,8.20
2019-04-06T03:06:02.936Z,8.20
2019-04-06T03:08:07.469Z,8.20
2019-04-06T03:10:11.179Z,8.20
2019-04-06T03:12:14.224Z,8.10
2019-04-06T03:14:17.203Z,8.10
2019-04-06T03:16:20.090Z,8.10
2019-04-06T03:18:23.071Z,8.10
2019-04-06T03:20:26.012Z,8.10
2019-04-06T03:22:28.907Z,8.10
2019-04-06T03:24:32.431Z,8.00
2019-04-06T03:26:36.919Z,8.00
2019-04-06T03:28:40.404Z,8.00
2019-04-06T03:30:43.490Z,8.00
2019-04-06T03:32:46.646Z,7.90
2019-04-06T03:34:49.260Z,7.90
2019-04-06T03:36:52.186Z,7.90
2019-04-06T03:38:56.340Z,7.80
2019-04-06T03:40:59.263Z,7.80
2019-04-06T03:43:03.779Z,7.80
2019-04-06T03:45:07.365Z,7.80
2019-04-06T03:47:10.239Z,7.80
2019-04-06T03:49:13.265Z,7.70
2019-04-06T03:51:16.908Z,7.60
2019-04-06T03:53:19.789Z,7.60
2019-04-06T03:55:22.802Z,7.60
2019-04-06T03:57:25.803Z,7.60
2019-04-06T03:59:30.100Z,7.50
2019-04-06T04:01:33.199Z,7.50
2019-04-06T04:03:36.985Z,7.50
2019-04-06T04:05:39.802Z,7.40
2019-04-06T04:07:43.485Z,7.40
2019-04-06T04:09:47.139Z,7.40
2019-04-06T04:11:50.043Z,7.40
2019-04-06T04:13:53.167Z,7.30
2019-04-06T04:15:57.546Z,7.30
2019-04-06T04:17:59.513Z,7.30
2019-04-06T04:20:02.433Z,7.30
2019-04-06T04:22:06.096Z,7.20
2019-04-06T04:24:09.759Z,7.20
2019-04-06T04:26:12.673Z,7.20
2019-04-06T04:28:15.904Z,7.20
2019-04-06T04:30:31.610Z,7.20
2019-04-06T04:32:22.678Z,7.10
2019-04-06T04:34:25.639Z,7.10
2019-04-06T04:36:28.979Z,7.10
2019-04-06T04:38:32.614Z,7.00
2019-04-06T04:40:36.943Z,7.00
2019-04-06T04:42:39.815Z,7.00
2019-04-06T04:44:42.765Z,7.00
2019-04-06T04:46:46.768Z,6.90
2019-04-06T04:48:49.683Z,6.90
2019-04-06T04:50:54.096Z,6.90
2019-04-06T04:52:56.984Z,6.90
2019-04-06T04:55:01.435Z,6.90
2019-04-06T04:57:05.134Z,6.90
2019-04-06T04:59:08.797Z,6.90
2019-04-06T05:01:13.256Z,6.80
2019-04-06T05:03:16.138Z,6.80
2019-04-06T05:05:19.107Z,6.80
2019-04-06T05:07:21.992Z,6.80
2019-04-06T05:09:25.039Z,6.80
2019-04-06T05:11:28.239Z,6.80
2019-04-06T05:13:32.366Z,6.80
2019-04-06T05:15:45.720Z,6.80
2019-04-06T05:17:48.684Z,6.80
2019-04-06T05:19:52.466Z,6.80
2019-04-06T05:21:56.165Z,6.80
2019-04-06T05:23:59.032Z,6.80
2019-04-06T05:26:02.089Z,6.70
2019-04-06T05:28:05.688Z,6.80
2019-04-06T05:30:08.615Z,6.80
2019-04-06T05:32:11.555Z,6.80
2019-04-06T05:34:15.971Z,6.80
2019-04-06T05:36:18.923Z,6.80
2019-04-06T05:38:22.579Z,6.80
2019-04-06T05:40:25.695Z,6.80
2019-04-06T05:42:29.341Z,6.80
2019-04-06T05:44:32.230Z,6.80
2019-04-06T05:46:36.631Z,6.80
2019-04-06T05:48:40.345Z,6.80
2019-04-06T05:50:43.246Z,6.90
2019-04-06T05:52:46.134Z,6.90
2019-04-06T05:54:49.012Z,6.90
2019-04-06T05:56:51.911Z,6.90
2019-04-06T05:58:55.437Z,6.90
2019-04-06T06:00:58.257Z,7.00
2019-04-06T06:03:01.256Z,7.00
2019-04-06T06:05:04.128Z,7.00
2019-04-06T06:07:07.930Z,7.10
2019-04-06T06:09:10.827Z,7.10
2019-04-06T06:11:14.474Z,7.10
2019-04-06T06:13:17.391Z,7.10
2019-04-06T06:15:21.083Z,7.20
2019-04-06T06:17:24.101Z,7.20
2019-04-06T06:19:27.771Z,7.30
2019-04-06T06:21:31.482Z,7.40
2019-04-06T06:23:35.152Z,7.40
2019-04-06T06:25:38.307Z,7.40
2019-04-06T06:27:41.818Z,7.40
2019-04-06T06:29:44.738Z,7.40
2019-04-06T06:31:48.402Z,7.50
2019-04-06T06:33:51.288Z,7.50
2019-04-06T06:35:54.388Z,7.50
2019-04-06T06:37:57.962Z,7.50
2019-04-06T06:40:01.687Z,7.60
2019-04-06T06:42:05.387Z,7.70
2019-04-06T06:44:08.382Z,7.70
2019-04-06T06:46:12.112Z,7.70
2019-04-06T06:48:15.297Z,7.70
2019-04-06T06:50:17.989Z,7.80
2019-04-06T06:52:20.915Z,7.80
2019-04-06T06:54:24.631Z,7.80
2019-04-06T06:56:27.632Z,7.90
2019-04-06T06:58:30.487Z,7.90
2019-04-06T07:00:34.297Z,8.00
2019-04-06T07:02:37.270Z,8.00
2019-04-06T07:04:40.525Z,8.00
2019-04-06T07:06:44.085Z,8.10
2019-04-06T07:08:47.075Z,8.10
2019-04-06T07:10:50.740Z,8.20
2019-04-06T07:12:53.727Z,8.20
2019-04-06T07:14:56.607Z,8.20
2019-04-06T07:17:00.363Z,8.30
2019-04-06T07:19:03.653Z,8.30
2019-04-06T07:21:06.614Z,8.40
2019-04-06T07:23:10.246Z,8.50
2019-04-06T07:25:13.267Z,8.50
2019-04-06T07:27:16.919Z,8.60
2019-04-06T07:29:19.889Z,8.60
2019-04-06T07:31:22.934Z,8.70
2019-04-06T07:33:26.636Z,8.80
2019-04-06T07:35:29.616Z,8.80
2019-04-06T07:37:32.599Z,8.90
2019-04-06T07:39:36.309Z,9.00
2019-04-06T07:41:39.175Z,9.10
2019-04-06T07:43:43.288Z,9.20
2019-04-06T07:45:46.947Z,9.30
2019-04-06T07:47:50.614Z,9.20
2019-04-06T07:49:54.535Z,9.40
2019-04-06T07:51:57.266Z,9.40
2019-04-06T07:54:00.398Z,9.50
2019-04-06T07:56:03.979Z,9.60
2019-04-06T07:58:08.465Z,9.70
2019-04-06T08:00:11.346Z,9.70
2019-04-06T08:02:14.223Z,9.80
2019-04-06T08:04:17.206Z,9.90
2019-04-06T08:06:20.196Z,9.90
2019-04-06T08:08:23.095Z,10.00
2019-04-06T08:10:26.011Z,10.10
2019-04-06T08:12:29.264Z,10.20
2019-04-06T08:14:32.921Z,10.30
2019-04-06T08:16:35.965Z,10.30
2019-04-06T08:18:38.891Z,10.40
2019-04-06T08:20:41.804Z,10.40
2019-04-06T08:22:44.792Z,10.50
2019-04-06T08:24:48.486Z,10.60
2019-04-06T08:26:52.408Z,10.70
2019-04-06T08:29:01.834Z,10.70
2019-04-06T08:30:59.167Z,10.80
2019-04-06T08:33:02.168Z,10.80
2019-04-06T08:35:05.824Z,11.00
2019-04-06T08:37:09.082Z,10.90
2019-04-06T08:39:12.531Z,11.00
2019-04-06T08:41:15.444Z,11.10
2019-04-06T08:43:19.319Z,11.10
2019-04-06T08:45:23.227Z,11.30
2019-04-06T08:47:26.922Z,11.30
2019-04-06T08:49:31.960Z,11.40
2019-04-06T08:51:34.908Z,11.40
2019-04-06T08:53:37.937Z,11.50
2019-04-06T08:55:41.007Z,11.50
2019-04-06T08:57:44.762Z,11.60
2019-04-06T08:59:47.616Z,11.60
2019-04-06T09:01:51.287Z,11.70
2019-04-06T09:03:54.181Z,11.70
2019-04-06T09:05:58.166Z,11.80
2019-04-06T09:08:01.343Z,11.80
2019-04-06T09:10:05.605Z,12.00
2019-04-06T09:12:09.758Z,12.00
2019-04-06T09:14:13.063Z,12.00
2019-04-06T09:16:16.065Z,12.10
2019-04-06T09:18:19.790Z,12.20
2019-04-06T09:20:23.579Z,12.20
2019-04-06T09:22:27.351Z,12.30
2019-04-06T09:24:30.139Z,12.20
2019-04-06T09:26:33.137Z,12.30
2019-04-06T09:28:38.083Z,12.40
2019-04-06T09:30:41.855Z,12.40
2019-04-06T09:32:44.794Z,12.40
2019-04-06T09:34:47.751Z,12.50
2019-04-06T09:36:51.727Z,12.60
2019-04-06T09:38:55.392Z,12.60
2019-04-06T09:40:58.450Z,12.60
2019-04-06T09:45:26.912Z,12.70
2019-04-06T09:47:46.586Z,12.70
2019-04-06T09:49:55.078Z,12.80
2019-04-06T09:51:59.605Z,12.80
2019-04-06T09:54:06.410Z,12.90
2019-04-06T09:56:24.152Z,12.90
2019-04-06T09:58:31.386Z,13.00
2019-04-06T10:00:40.014Z,13.00
2019-04-06T10:02:58.756Z,13.00
2019-04-06T10:05:02.346Z,13.10
2019-04-06T10:07:13.053Z,13.10
2019-04-06T10:09:19.330Z,13.10
2019-04-06T10:11:33.578Z,13.10
2019-04-06T10:13:38.055Z,13.20
2019-04-06T10:15:47.171Z,13.30
2019-04-06T10:17:57.768Z,13.30
2019-04-06T10:20:02.356Z,13.40
2019-04-06T10:22:24.174Z,13.40
2019-04-06T10:24:33.578Z,13.40
2019-04-06T10:26:36.463Z,13.40
2019-04-06T10:28:45.163Z,13.50
2019-04-06T10:30:50.427Z,13.50
2019-04-06T10:32:56.953Z,13.60
2019-04-06T10:35:06.484Z,13.70
2019-04-06T10:37:10.951Z,13.70
2019-04-06T10:39:16.311Z,13.70
2019-04-06T10:41:24.371Z,13.80
2019-04-06T10:43:45.764Z,13.80
2019-04-06T10:46:00.191Z,13.90
2019-04-06T10:48:06.808Z,13.90
2019-04-06T10:50:16.204Z,13.90
2019-04-06T10:52:24.907Z,14.00
2019-04-06T10:54:34.101Z,14.00
2019-04-06T10:56:41.143Z,14.00
2019-04-06T10:58:45.737Z,14.10
2019-04-06T11:01:08.067Z,14.20
2019-04-06T11:03:15.319Z,14.30
2019-04-06T11:05:19.457Z,14.20
2019-04-06T11:07:35.922Z,14.30
2019-04-06T11:09:42.740Z,14.40
2019-04-06T11:11:50.538Z,14.40
2019-04-06T11:13:59.148Z,14.50
2019-04-06T11:16:21.959Z,14.60
2019-04-06T11:18:39.975Z,14.70
2019-04-06T11:20:51.778Z,14.70
2019-04-06T11:23:10.343Z,14.80
2019-04-06T11:25:24.673Z,14.90
2019-04-06T11:27:31.211Z,14.90
2019-04-06T11:29:39.997Z,15.00
2019-04-06T11:31:48.864Z,15.10
2019-04-06T11:34:08.016Z,15.10
2019-04-06T11:36:15.647Z,15.20
2019-04-06T11:38:28.975Z,15.30
2019-04-06T11:40:33.781Z,15.30
2019-04-06T11:42:53.379Z,15.40
2019-04-06T11:45:07.075Z,15.40
2019-04-06T11:47:12.868Z,15.50
2019-04-06T11:49:20.795Z,15.50
2019-04-06T11:51:29.545Z,15.60
2019-04-06T11:53:33.172Z,15.70
2019-04-06T11:55:44.438Z,15.70
2019-04-06T11:57:58.550Z,15.70
2019-04-06T12:00:26.045Z,15.80
2019-04-06T12:02:27.167Z,15.90
2019-04-06T12:04:49.978Z,15.80
2019-04-06T12:07:07.718Z,15.90
2019-04-06T12:09:29.250Z,16.00
2019-04-06T12:11:32.881Z,16.10
2019-04-06T12:13:38.340Z,16.10
2019-04-06T12:15:41.222Z,16.10
2019-04-06T12:17:50.983Z,16.20
2019-04-06T12:20:10.633Z,16.30
2019-04-06T12:22:19.628Z,16.30
2019-04-06T12:24:28.399Z,16.40
2019-04-06T12:26:37.663Z,16.50
2019-04-06T12:28:41.408Z,16.50
2019-04-06T12:31:02.041Z,16.60
2019-04-06T12:33:08.406Z,16.70
2019-04-06T12:35:11.919Z,16.70
2019-04-06T12:37:20.686Z,16.70
2019-04-06T12:39:23.858Z,16.80
2019-04-06T12:41:29.072Z,16.90
2019-04-06T12:43:37.642Z,16.90
2019-04-06T12:45:45.051Z,17.00
2019-04-06T12:48:06.549Z,17.00
2019-04-06T12:50:16.166Z,17.00
2019-04-06T12:52:21.247Z,17.00
2019-04-06T12:54:41.895Z,17.10
2019-04-06T12:56:47.731Z,17.10
2019-04-06T12:59:07.402Z,17.20
2019-04-06T13:01:22.350Z,17.20
2019-04-06T13:03:29.875Z,17.20
2019-04-06T13:05:41.643Z,17.20
2019-04-06T13:08:02.328Z,17.30
2019-04-06T13:10:09.725Z,17.30
2019-04-06T13:12:16.307Z,17.30
2019-04-06T13:14:34.475Z,17.30
2019-04-06T13:16:42.610Z,17.30
2019-04-06T13:18:47.356Z,17.40
2019-04-06T13:20:55.840Z,17.40
2019-04-06T13:22:58.742Z,17.50
2019-04-06T13:25:01.937Z,17.50
2019-04-06T13:27:04.806Z,17.50
2019-04-06T13:29:25.708Z,17.60
2019-04-06T13:31:28.708Z,17.60
2019-04-06T13:33:36.159Z,17.70
2019-04-06T13:35:40.983Z,17.70
2019-04-06T13:37:46.630Z,17.70
2019-04-06T13:39:55.143Z,17.80
2019-04-06T13:41:58.743Z,17.80
2019-04-06T13:44:02.086Z,17.80
2019-04-06T13:46:12.214Z,17.80
2019-04-06T13:48:19.231Z,17.80
2019-04-06T13:50:38.639Z,17.90
2019-04-06T13:53:00.507Z,17.90
2019-04-06T13:55:07.513Z,17.90
2019-04-06T13:57:11.581Z,18.00
2019-04-06T13:59:29.959Z,18.00
2019-04-06T14:01:34.350Z,18.00
2019-04-06T14:03:49.273Z,18.00
2019-04-06T14:05:56.019Z,18.00
2019-04-06T14:08:04.179Z,18.00
2019-04-06T14:10:10.710Z,18.00
2019-04-06T14:12:19.139Z,18.00
2019-04-06T14:14:29.181Z,18.00
2019-04-06T14:16:44.554Z,18.00
2019-04-06T14:18:52.385Z,18.00
2019-04-06T14:20:59.143Z,18.00
2019-04-06T14:23:02.027Z,18.00
2019-04-06T14:25:06.886Z,18.00
2019-04-06T14:27:29.090Z,18.00
2019-04-06T14:29:37.583Z,18.10
2019-04-06T14:31:43.087Z,18.10
2019-04-06T14:33:51.615Z,18.10
2019-04-06T14:36:00.170Z,18.10
2019-04-06T14:38:04.879Z,18.10
2019-04-06T14:40:07.756Z,18.20
2019-04-06T14:42:25.524Z,18.20
2019-04-06T14:44:30.939Z,18.30
2019-04-06T14:46:40.884Z,18.20
2019-04-06T14:49:12.096Z,18.30
2019-04-06T14:51:21.602Z,18.30
2019-04-06T14:53:25.798Z,18.30
2019-04-06T14:55:32.109Z,18.30
2019-04-06T14:57:40.759Z,18.40
2019-04-06T14:59:49.999Z,18.40
2019-04-06T15:01:59.005Z,18.40
2019-04-06T15:03:59.467Z,18.40
2019-04-06T15:06:18.927Z,18.40
2019-04-06T15:08:22.292Z,18.40
2019-04-06T15:10:27.555Z,18.50
2019-04-06T15:12:36.106Z,18.50
2019-04-06T15:14:39.012Z,18.50
2019-04-06T15:16:42.351Z,18.60
2019-04-06T15:18:47.590Z,18.60
2019-04-06T15:20:51.268Z,18.60
2019-04-06T15:23:00.068Z,18.60
2019-04-06T15:25:03.571Z,18.70
2019-04-06T15:27:08.385Z,18.70
2019-04-06T15:29:15.130Z,18.70
2019-04-06T15:31:20.124Z,18.70
2019-04-06T15:33:28.150Z,18.70
2019-04-06T15:35:37.351Z,18.80
2019-04-06T15:37:57.019Z,18.80
2019-04-06T15:40:05.491Z,18.80
2019-04-06T15:42:09.438Z,18.90
2019-04-06T15:44:31.746Z,18.90
2019-04-06T15:46:39.083Z,18.90
2019-04-06T15:48:59.571Z,18.90
2019-04-06T15:51:06.421Z,18.90
2019-04-06T15:53:21.051Z,18.90
2019-04-06T15:55:27.643Z,19.00
2019-04-06T15:57:31.006Z,18.90
2019-04-06T15:59:34.291Z,19.00
2019-04-06T16:01:42.982Z,19.00
2019-04-06T16:03:50.500Z,19.00
2019-04-06T16:05:58.924Z,19.00
2019-04-06T16:08:20.679Z,19.00
2019-04-06T16:10:44.372Z,19.00
2019-04-06T16:12:50.082Z,19.00
2019-04-06T16:14:56.817Z,19.10
2019-04-06T16:17:04.167Z,19.10
2019-04-06T16:19:08.471Z,19.10
2019-04-06T16:21:22.118Z,19.10
2019-04-06T16:23:36.455Z,19.10
2019-04-06T16:25:46.385Z,19.20
2019-04-06T16:28:05.031Z,19.10
2019-04-06T16:30:13.677Z,19.10
2019-04-06T16:32:31.034Z,19.20
2019-04-06T16:34:39.773Z,19.20
2019-04-06T16:37:02.488Z,19.20
2019-04-06T16:39:08.187Z,19.30
2019-04-06T16:41:18.673Z,19.30
2019-04-06T16:43:28.062Z,19.30
2019-04-06T16:45:36.777Z,19.40
2019-04-06T16:47:45.146Z,19.40
2019-04-06T16:49:48.835Z,19.40
2019-04-06T16:51:52.958Z,19.50
2019-04-06T16:53:59.588Z,19.50
2019-04-06T16:56:16.075Z,19.50
2019-04-06T16:58:36.790Z,19.50
2019-04-06T17:00:45.316Z,19.50
2019-04-06T17:02:59.894Z,19.50
2019-04-06T17:05:08.523Z,19.50
2019-04-06T17:07:15.142Z,19.40
2019-04-06T17:09:24.040Z,19.50
2019-04-06T17:11:33.693Z,19.40
2019-04-06T17:13:41.991Z,19.40
2019-04-06T17:15:51.178Z,19.30
2019-04-06T17:18:05.834Z,19.30
2019-04-06T17:20:14.200Z,19.30
2019-04-06T17:22:22.806Z,19.20
2019-04-06T17:24:26.778Z,19.20
2019-04-06T17:26:32.007Z,19.20
2019-04-06T17:28:40.972Z,19.20
2019-04-06T17:30:49.976Z,19.20
2019-04-06T17:32:53.301Z,19.20
2019-04-06T17:34:59.048Z,19.20
2019-04-06T17:37:15.455Z,19.10
2019-04-06T17:39:18.650Z,19.10
2019-04-06T17:41:22.727Z,19.10
2019-04-06T17:43:31.127Z,19.00
2019-04-06T17:45:40.040Z,19.10
2019-04-06T17:47:48.671Z,19.00
2019-04-06T17:49:58.661Z,18.90
2019-04-06T17:52:18.437Z,18.80
2019-04-06T17:54:25.710Z,18.80
2019-04-06T17:56:46.627Z,18.80
2019-04-06T17:58:56.414Z,18.60
2019-04-06T18:00:59.839Z,18.60
2019-04-06T18:03:18.400Z,18.50
2019-04-06T18:05:24.897Z,18.50
2019-04-06T18:07:30.372Z,18.50
2019-04-06T18:09:36.328Z,18.40
2019-04-06T18:11:42.038Z,18.40
2019-04-06T18:13:49.832Z,18.20
2019-04-06T18:15:53.863Z,18.20
2019-04-06T18:17:57.313Z,18.20
2019-04-06T18:20:01.081Z,18.00
2019-04-06T18:22:05.488Z,18.00
2019-04-06T18:24:08.412Z,18.00
2019-04-06T18:26:12.562Z,17.80
2019-04-06T18:28:16.340Z,17.80
2019-04-06T18:30:19.307Z,17.80
2019-04-06T18:32:28.574Z,17.60
2019-04-06T18:34:31.490Z,17.60
2019-04-06T18:36:36.883Z,17.60
2019-04-06T18:38:47.407Z,17.50
2019-04-06T18:40:50.383Z,17.50
2019-04-06T18:42:53.254Z,17.40
2019-04-06T18:44:56.377Z,17.30
2019-04-06T18:46:59.050Z,17.30
2019-04-06T18:49:03.199Z,17.10
2019-04-06T18:51:06.504Z,17.10
2019-04-06T18:53:09.855Z,17.00
2019-04-06T18:55:12.970Z,17.00
2019-04-06T18:57:16.596Z,16.90
2019-04-06T18:59:19.505Z,16.90
2019-04-06T19:01:22.445Z,16.80
2019-04-06T19:03:25.464Z,16.70
2019-04-06T19:05:28.626Z,16.60
2019-04-06T19:07:31.593Z,16.60
2019-04-06T19:09:35.111Z,16.50
2019-04-06T19:11:38.221Z,16.40
2019-04-06T19:13:42.136Z,16.40
2019-04-06T19:15:46.848Z,16.20
2019-04-06T19:17:51.173Z,16.20
2019-04-06T19:19:54.079Z,16.10
2019-04-06T19:21:57.837Z,16.10
2019-04-06T19:24:00.856Z,16.10
2019-04-06T19:26:03.759Z,16.00
2019-04-06T19:28:07.674Z,16.00
2019-04-06T19:30:10.255Z,15.90
2019-04-06T19:32:13.379Z,15.90
2019-04-06T19:34:17.029Z,15.80
2019-04-06T19:36:20.445Z,15.80
2019-04-06T19:38:23.473Z,15.80
2019-04-06T19:40:27.283Z,15.70
2019-04-06T19:42:30.699Z,15.70
2019-04-06T19:44:34.040Z,15.60
2019-04-06T19:46:38.530Z,15.60
2019-04-06T19:48:41.395Z,15.50
2019-04-06T19:50:44.664Z,15.50
2019-04-06T19:52:47.588Z,15.40
2019-04-06T19:54:51.425Z,15.40
2019-04-06T19:56:55.191Z,15.40
2019-04-06T19:58:58.890Z,15.30
2019-04-06T20:01:03.137Z,15.20
2019-04-06T20:03:07.558Z,15.20
2019-04-06T20:05:12.576Z,15.10
2019-04-06T20:07:15.497Z,15.10
2019-04-06T20:09:18.653Z,15.10
2019-04-06T20:11:22.343Z,15.10
2019-04-06T20:13:28.154Z,15.00
2019-04-06T20:15:29.333Z,15.00
2019-04-06T20:17:32.298Z,15.00
2019-04-06T20:19:35.197Z,14.90
2019-04-06T20:21:38.589Z,14.90
2019-04-06T20:23:42.846Z,14.80
2019-04-06T20:25:46.265Z,14.80
2019-04-06T20:27:50.135Z,14.80
2019-04-06T20:29:53.588Z,14.80
2019-04-06T20:31:57.520Z,14.70
2019-04-06T20:34:00.891Z,14.70
2019-04-06T20:36:04.699Z,14.60
2019-04-06T20:38:07.383Z,14.60
2019-04-06T20:40:10.335Z,14.60
2019-04-06T20:42:13.542Z,14.50
2019-04-06T20:44:16.713Z,14.50
2019-04-06T20:46:20.656Z,14.50
2019-04-06T20:48:23.302Z,14.40
2019-04-06T20:50:27.133Z,14.40
2019-04-06T20:52:29.965Z,14.40
2019-04-06T20:54:32.956Z,14.30
2019-04-06T20:56:37.127Z,14.30
2019-04-06T20:58:40.195Z,14.20
2019-04-06T21:00:42.815Z,14.20
2019-04-06T21:02:45.893Z,14.20
2019-04-06T21:04:50.658Z,14.10
2019-04-06T21:06:53.302Z,14.10
2019-04-06T21:08:57.530Z,14.10
2019-04-06T21:11:00.286Z,14.10
2019-04-06T21:13:04.313Z,14.00
2019-04-06T21:15:16.876Z,14.00
2019-04-06T21:17:09.538Z,14.00
2019-04-06T21:19:12.479Z,14.00
2019-04-06T21:21:15.410Z,14.00
2019-04-06T21:23:19.007Z,13.90
2019-04-06T21:25:23.351Z,13.90
2019-04-06T21:27:26.103Z,13.90
2019-04-06T21:29:29.656Z,13.90
2019-04-06T21:31:33.199Z,13.90
2019-04-06T21:33:36.515Z,13.90
2019-04-06T21:35:40.941Z,13.90
2019-04-06T21:37:44.745Z,13.90
2019-04-06T21:39:48.444Z,13.80
2019-04-06T21:41:51.620Z,13.90
2019-04-06T21:43:55.603Z,13.80
2019-04-06T21:45:58.310Z,13.80
2019-04-06T21:48:01.723Z,13.80
2019-04-06T21:50:06.898Z,13.90
2019-04-06T21:52:10.192Z,13.80
2019-04-06T21:54:13.785Z,13.90
2019-04-06T21:56:16.865Z,13.90
2019-04-06T21:58:20.371Z,13.90
2019-04-06T22:00:25.309Z,13.90
2019-04-06T22:02:28.625Z,13.90
2019-04-06T22:04:32.695Z,14.00
2019-04-06T22:06:35.478Z,14.00
2019-04-06T22:08:39.516Z,14.00
2019-04-06T22:10:43.481Z,14.00
2019-04-06T22:12:45.792Z,14.00
2019-04-06T22:14:49.180Z,14.00
2019-04-06T22:16:52.817Z,14.00
2019-04-06T22:18:56.445Z,14.00
2019-04-06T22:20:59.593Z,14.00
2019-04-06T22:23:02.844Z,14.00
2019-04-06T22:25:06.143Z,14.00
2019-04-06T22:27:10.049Z,14.00
2019-04-06T22:29:12.935Z,14.00
2019-04-06T22:31:16.429Z,14.00
2019-04-06T22:33:20.781Z,14.00
2019-04-06T22:35:24.830Z,14.00
2019-04-06T22:37:27.815Z,13.90
2019-04-06T22:39:31.646Z,13.90
2019-04-06T22:41:34.531Z,13.90
2019-04-06T22:43:37.755Z,13.90
2019-04-06T22:45:40.711Z,13.90
2019-04-06T22:47:43.633Z,13.90
2019-04-06T22:49:46.768Z,13.90
2019-04-06T22:51:49.973Z,13.80
2019-04-06T22:53:53.802Z,13.80
2019-04-06T22:55:57.254Z,13.80
2019-04-06T22:58:00.468Z,13.80
2019-04-06T23:00:03.546Z,13.70
2019-04-06T23:02:07.671Z,13.70
2019-04-06T23:04:21.012Z,13.80
2019-04-06T23:06:24.556Z,13.70
2019-04-06T23:08:28.206Z,13.70
2019-04-06T23:10:31.722Z,13.80
2019-04-06T23:12:36.054Z,13.70
2019-04-06T23:14:40.007Z,13.70
2019-04-06T23:16:44.710Z,13.70
2019-04-06T23:18:47.220Z,13.70
2019-04-06T23:20:51.185Z,13.70
2019-04-06T23:22:53.799Z,13.70
2019-04-06T23:24:56.446Z,13.70
2019-04-06T23:26:59.152Z,13.80
2019-04-06T23:29:03.389Z,13.80
2019-04-06T23:31:06.182Z,13.80
2019-04-06T23:33:10.028Z,13.70
2019-04-06T23:35:13.983Z,13.70
2019-04-06T23:37:18.441Z,13.80
2019-04-06T23:39:20.691Z,13.80
2019-04-06T23:41:23.626Z,13.70
2019-04-06T23:43:26.784Z,13.70
2019-04-06T23:45:29.994Z,13.70
2019-04-06T23:47:35.105Z,13.70
2019-04-06T23:49:38.426Z,13.70
2019-04-06T23:51:41.498Z,13.70
2019-04-06T23:53:44.004Z,13.70
2019-04-06T23:55:47.951Z,13.70
2019-04-06T23:57:51.079Z,13.70
2019-04-06T23:59:55.467Z,13.70
